Date,TemperatureHighF,TemperatureAvgF,TemperatureLowF,DewpointHighF,DewpointAvgF,DewpointLowF,HumidityHigh,HumidityAvg,HumidityLow,PressureMaxIn,PressureMinIn,WindSpeedMaxMPH,WindSpeedAvgMPH,GustSpeedMaxMPH,PrecipitationSumIn
2013-11-1,53,48,45,51,45,42,95,87,76,29.76,29.35,21,10,31,0.03
2013-11-2,49,45,42,46,43,39,96,92,82,30.14,29.75,11,4,15,0.09
2013-11-3,50,44,38,42,39,37,97,85,67,30.38,30.14,9,2,13,0.01
2013-11-4,55,45,38,43,37,32,89,76,58,30.40,30.26,13,5,22,0.00
2013-11-5,47,43,40,40,36,34,88,77,67,30.37,30.12,12,5,20,0.00
2013-11-6,48,42,32,43,38,29,95,87,66,30.12,29.86,21,10,26,0.25
2013-11-7,39,30,22,30,24,19,89,78,50,30.29,30.11,18,5,26,0.00
2013-11-8,38,29,18,26,22,17,95,78,57,30.39,30.17,10,3,12,0.01
2013-11-9,50,38,33,34,28,22,74,65,49,30.17,29.94,26,12,33,0.00
2013-11-10,38,30,21,29,22,18,91,72,58,30.35,30.07,15,4,24,0.00
2013-11-11,38,33,26,31,26,22,93,76,65,30.31,30.11,14,7,18,0.04
2013-11-14,44,41,39,28,28,26,63,58,50,30.10,30.08,18,12,18,0.00
2013-11-15,53,45,40,35,31,27,72,58,45,30.10,30.03,17,9,17,0.00
2013-11-16,58,50,40,57,47,33,94,87,72,30.07,29.75,24,11,24,0.18
2013-11-17,64,61,58,61,59,56,96,93,90,29.75,29.30,33,17,33,0.07
2013-11-18,46,41,36,36,32,29,81,73,62,30.25,29.99,28,8,28,0.00
2013-11-19,44,36,30,32,29,26,86,75,55,30.40,30.25,12,3,12,0.00
2013-11-20,44,37,30,37,30,26,86,77,63,30.41,30.20,15,5,15,0.00
2013-11-21,48,47,43,47,46,36,97,96,76,30.25,30.20,9,4,12,0.55
2013-11-22,48,41,30,47,39,28,97,93,85,30.48,30.19,20,6,20,0.03
2013-11-23,32,26,20,28,22,17,93,86,74,30.68,30.42,25,9,25,0.03
2013-11-24,28,22,15,21,15,11,93,76,60,30.75,30.53,17,5,17,0.00
2013-11-25,32,25,20,21,18,12,78,73,63,30.53,30.22,24,12,24,0.00